Time;durP1;ratioP1;P1;durP2;ratioP2;P2;SDS_P1;SDS_P2;PMS_P1;PMS_P2;Temp;Humidity;BMP_temperature;BMP_pressure;BME280_temperature;BME280_humidity;BME280_pressure;Samples;Min_cycle;Max_cycle;Signal;HPM_P1;HPM_P2
2022/01/15 00:00:06;;;;;;;20.50;11.27;;;4.10;99.90;;;;;;5015958;28;20174;-79
2022/01/15 00:02:32;;;;;;;22.13;12.37;;;4.00;99.90;;;;;;5032376;28;20166;-81
2022/01/15 00:04:58;;;;;;;19.27;10.63;;;4.00;99.90;;;;;;5043740;28;20177;-76
2022/01/15 00:07:24;;;;;;;19.33;11.87;;;4.00;99.90;;;;;;5051748;28;20196;-78
2022/01/15 00:09:50;;;;;;;17.97;11.57;;;4.00;99.90;;;;;;5053193;28;20177;-79
2022/01/15 00:12:16;;;;;;;19.57;11.03;;;3.90;99.90;;;;;;5035110;28;20208;-78
2022/01/15 00:14:43;;;;;;;15.87;10.97;;;3.90;99.90;;;;;;5034553;28;20224;-79
2022/01/15 00:17:20;;;;;;;24.47;12.47;;;3.70;99.90;;;;;;5051857;28;20585;-76
2022/01/15 00:19:49;;;;;;;19.50;11.87;;;3.60;99.90;;;;;;5036439;28;20575;-79
2022/01/15 00:22:18;;;;;;;21.57;12.47;;;3.30;99.90;;;;;;5034879;28;20172;-77
2022/01/15 00:24:46;;;;;;;20.97;12.03;;;3.40;99.90;;;;;;5051381;28;20182;-76
2022/01/15 00:27:13;;;;;;;18.07;11.27;;;3.40;99.90;;;;;;5035111;28;20570;-77
2022/01/15 00:29:39;;;;;;;19.97;12.03;;;3.30;99.90;;;;;;5051521;28;20165;-77
2022/01/15 00:32:06;;;;;;;21.37;11.27;;;3.60;99.90;;;;;;5047338;28;20173;-79
2022/01/15 00:34:32;;;;;;;19.63;11.50;;;3.70;99.90;;;;;;5031161;28;20347;-79
2022/01/15 00:36:58;;;;;;;21.97;11.83;;;3.50;99.90;;;;;;5031106;28;20205;-76
2022/01/15 00:39:25;;;;;;;18.17;10.87;;;3.60;99.90;;;;;;5031574;28;20209;-79
2022/01/15 00:41:51;;;;;;;20.33;11.33;;;3.80;99.90;;;;;;5031519;28;20170;-78
2022/01/15 00:44:18;;;;;;;19.97;11.43;;;3.70;99.90;;;;;;5015077;28;20523;-79
2022/01/15 00:46:44;;;;;;;22.50;11.93;;;3.80;99.90;;;;;;5032465;28;20173;-79
2022/01/15 00:49:10;;;;;;;19.97;11.57;;;3.80;99.90;;;;;;5031300;28;20178;-77
2022/01/15 00:51:36;;;;;;;18.30;10.60;;;3.80;99.90;;;;;;5030502;28;20182;-76
2022/01/15 00:54:03;;;;;;;18.80;10.70;;;3.80;99.90;;;;;;5034763;28;20264;-75
2022/01/15 00:56:29;;;;;;;18.07;10.43;;;3.70;99.90;;;;;;5050721;28;20205;-78
2022/01/15 00:58:55;;;;;;;19.43;10.67;;;3.70;99.90;;;;;;5052148;28;20172;-78
2022/01/15 01:01:22;;;;;;;19.00;10.97;;;3.70;99.90;;;;;;5050898;28;20203;-76
2022/01/15 01:03:49;;;;;;;20.83;10.97;;;3.60;99.90;;;;;;5018041;28;20177;-78
2022/01/15 01:06:15;;;;;;;18.10;10.37;;;3.60;99.90;;;;;;5034532;28;20195;-78
2022/01/15 01:08:41;;;;;;;24.17;11.47;;;3.80;99.90;;;;;;5052321;28;20169;-76
2022/01/15 01:11:17;;;;;;;17.37;10.57;;;3.70;99.90;;;;;;5050908;28;20257;-77
2022/01/15 01:20:04;;;;;;;19.13;11.13;;;3.70;99.90;;;;;;5018713;28;20177;-77
2022/01/15 01:24:48;;;;;;;18.23;9.97;;;3.60;99.90;;;;;;5030878;28;20173;-76
2022/01/15 01:27:24;;;;;;;17.47;10.00;;;3.50;99.90;;;;;;5013823;28;20185;-77
2022/01/15 01:30:10;;;;;;;16.37;9.77;;;3.50;99.90;;;;;;5048585;28;20540;-78
2022/01/15 01:32:52;;;;;;;18.07;10.20;;;3.50;99.90;;;;;;5039940;28;20204;-75
2022/01/15 01:35:43;;;;;;;14.20;9.33;;;3.50;99.90;;;;;;5036565;28;20208;-77
2022/01/15 01:38:13;;;;;;;16.63;9.80;;;3.50;99.90;;;;;;5057002;28;20177;-77
2022/01/15 01:40:43;;;;;;;13.67;8.77;;;3.50;99.90;;;;;;5049045;28;20558;-78
2022/01/15 01:45:35;;;;;;;18.17;9.83;;;3.30;99.90;;;;;;5051442;28;20188;-77
2022/01/15 01:48:01;;;;;;;15.17;8.77;;;3.10;99.90;;;;;;5033715;28;20262;-77
2022/01/15 01:50:29;;;;;;;15.93;8.60;;;3.30;99.90;;;;;;5033473;28;20540;-76
2022/01/15 01:52:57;;;;;;;21.50;9.87;;;3.40;99.90;;;;;;5050238;28;20276;-78
2022/01/15 01:55:26;;;;;;;17.87;10.13;;;3.50;99.90;;;;;;5033664;28;20208;-77
2022/01/15 01:57:54;;;;;;;17.77;10.73;;;3.50;99.90;;;;;;5042378;28;20178;-76
2022/01/15 02:00:22;;;;;;;18.47;10.30;;;3.40;99.90;;;;;;5049954;28;20173;-78
2022/01/15 02:02:50;;;;;;;21.20;10.40;;;3.30;99.90;;;;;;5049529;28;20191;-79
2022/01/15 02:05:18;;;;;;;20.33;10.47;;;3.30;99.90;;;;;;5032937;28;20180;-78
2022/01/15 02:07:45;;;;;;;18.80;10.60;;;3.30;99.90;;;;;;5033492;28;20219;-76
2022/01/15 02:10:14;;;;;;;17.07;10.87;;;3.20;99.90;;;;;;5049606;28;20200;-76
2022/01/15 02:12:41;;;;;;;18.93;9.73;;;3.20;99.90;;;;;;5049421;28;20188;-79
2022/01/15 02:15:12;;;;;;;19.10;10.70;;;3.10;99.90;;;;;;5025773;28;20202;-76
2022/01/15 02:17:58;;;;;;;17.43;9.87;;;3.20;99.90;;;;;;5046552;28;20180;-75
2022/01/15 02:25:56;;;;;;;18.97;9.90;;;3.10;99.90;;;;;;5031177;28;20213;-77
2022/01/15 02:28:28;;;;;;;22.63;9.93;;;2.80;99.90;;;;;;5029916;28;20174;-78
2022/01/15 02:30:59;;;;;;;14.53;8.90;;;3.00;99.90;;;;;;5030189;28;20174;-79
2022/01/15 02:33:25;;;;;;;15.67;9.47;;;3.10;99.90;;;;;;5013212;28;20188;-79
2022/01/15 02:35:52;;;;;;;19.57;10.03;;;3.00;99.90;;;;;;5013530;28;20573;-76
2022/01/15 02:38:18;;;;;;;19.50;11.13;;;2.90;99.90;;;;;;5045351;28;20570;-77
2022/01/15 02:40:44;;;;;;;19.43;9.63;;;2.80;99.90;;;;;;5032681;28;20166;-78
2022/01/15 02:43:14;;;;;;;17.43;9.37;;;2.60;99.90;;;;;;5033066;28;20949;-77
2022/01/15 02:45:46;;;;;;;20.93;10.23;;;2.70;99.90;;;;;;5049242;28;20806;-78
2022/01/15 02:48:17;;;;;;;20.67;9.50;;;2.80;99.90;;;;;;5049747;28;20241;-76
2022/01/15 02:50:45;;;;;;;15.93;10.13;;;2.70;99.90;;;;;;5050729;28;20196;-79
2022/01/15 02:53:12;;;;;;;17.27;9.57;;;2.70;99.90;;;;;;5032654;28;20255;-75
2022/01/15 02:55:47;;;;;;;18.17;10.47;;;2.30;99.90;;;;;;5049087;28;20620;-77
2022/01/15 02:58:14;;;;;;;15.67;9.00;;;1.80;99.90;;;;;;5032677;28;20191;-76
2022/01/15 03:00:40;;;;;;;16.87;9.90;;;1.70;99.90;;;;;;5050517;28;20905;-76
2022/01/15 03:03:06;;;;;;;17.70;9.90;;;1.80;99.90;;;;;;5048740;28;20504;-76
2022/01/15 03:05:32;;;;;;;16.87;9.67;;;2.20;99.90;;;;;;5050794;28;20242;-78
2022/01/15 03:07:58;;;;;;;17.23;9.93;;;2.60;99.90;;;;;;5016386;28;20878;-79
2022/01/15 03:10:24;;;;;;;17.33;9.50;;;2.80;99.90;;;;;;5052556;28;20212;-79
2022/01/15 03:12:53;;;;;;;17.87;10.27;;;3.00;99.90;;;;;;5036145;28;20546;-76
2022/01/15 03:15:19;;;;;;;18.87;9.60;;;3.10;99.90;;;;;;5036620;28;20363;-76
2022/01/15 03:17:46;;;;;;;16.53;9.80;;;3.10;99.90;;;;;;5053076;28;20176;-78
2022/01/15 03:20:13;;;;;;;15.73;8.97;;;3.20;99.90;;;;;;5045275;28;20178;-78
2022/01/15 03:22:39;;;;;;;16.33;9.27;;;3.20;99.90;;;;;;5032744;28;20182;-76
2022/01/15 03:25:06;;;;;;;16.87;10.00;;;3.20;99.90;;;;;;5050866;28;20185;-78
2022/01/15 03:27:33;;;;;;;16.87;9.40;;;3.20;99.90;;;;;;5035888;28;20188;-77
2022/01/15 03:30:03;;;;;;;15.30;8.83;;;3.10;99.90;;;;;;5052729;28;20616;-76
2022/01/15 03:32:29;;;;;;;15.07;9.13;;;3.20;99.90;;;;;;5052764;28;20189;-78
2022/01/15 03:34:54;;;;;;;14.83;9.50;;;3.20;99.90;;;;;;5044552;28;20188;-77
2022/01/15 03:37:20;;;;;;;17.60;8.93;;;3.30;99.90;;;;;;5063679;28;20185;-78
2022/01/15 03:39:46;;;;;;;19.87;10.83;;;3.50;99.90;;;;;;5051456;28;20212;-80
2022/01/15 03:42:12;;;;;;;17.70;10.37;;;3.30;99.90;;;;;;5035191;28;20181;-75
2022/01/15 03:44:40;;;;;;;17.63;9.93;;;3.20;99.90;;;;;;5035472;28;20239;-76
2022/01/15 03:47:06;;;;;;;15.70;10.20;;;3.30;99.90;;;;;;5026556;28;20181;-78
2022/01/15 03:49:32;;;;;;;14.37;9.20;;;3.20;99.90;;;;;;5038896;28;20239;-80
2022/01/15 03:51:58;;;;;;;13.23;8.97;;;3.20;99.90;;;;;;5035524;28;20192;-79
2022/01/15 03:54:24;;;;;;;15.27;9.30;;;3.20;99.90;;;;;;5035592;28;20656;-79
2022/01/15 03:56:50;;;;;;;18.00;9.90;;;3.20;99.90;;;;;;5035190;28;20553;-79
2022/01/15 03:59:15;;;;;;;14.57;8.80;;;3.20;99.90;;;;;;5000609;28;20182;-75
2022/01/15 04:01:41;;;;;;;14.33;9.00;;;2.90;99.90;;;;;;5052386;28;20231;-79
2022/01/15 04:04:07;;;;;;;15.77;9.03;;;3.00;99.90;;;;;;5035297;28;20200;-79
2022/01/15 04:06:33;;;;;;;16.60;9.20;;;3.00;99.90;;;;;;5035758;28;20268;-78
2022/01/15 04:08:59;;;;;;;14.20;9.17;;;3.00;99.90;;;;;;5035515;28;20348;-78
2022/01/15 04:11:25;;;;;;;15.87;9.07;;;2.90;99.90;;;;;;5052476;28;20177;-76
2022/01/15 04:13:54;;;;;;;15.60;9.33;;;2.90;99.90;;;;;;5052527;28;20177;-76
2022/01/15 04:16:20;;;;;;;15.10;8.90;;;2.80;99.90;;;;;;5019128;28;20221;-77
2022/01/15 04:18:46;;;;;;;14.80;9.17;;;2.80;99.90;;;;;;5050406;28;20184;-80
2022/01/15 04:21:13;;;;;;;13.27;8.33;;;2.80;99.90;;;;;;5044429;28;20262;-77
2022/01/15 04:23:39;;;;;;;15.93;8.77;;;2.70;99.90;;;;;;5023769;28;20174;-78
2022/01/15 04:26:05;;;;;;;18.70;9.87;;;2.90;99.90;;;;;;5033570;28;20192;-76
2022/01/15 04:28:34;;;;;;;13.17;8.13;;;3.00;99.90;;;;;;5051713;28;20181;-80
2022/01/15 04:31:07;;;;;;;14.57;8.83;;;3.00;99.90;;;;;;5035499;28;20185;-76
2022/01/15 04:33:34;;;;;;;19.70;9.53;;;2.70;99.90;;;;;;5035851;28;20201;-76
2022/01/15 04:36:00;;;;;;;13.73;8.20;;;2.60;99.90;;;;;;5018359;28;20207;-77
2022/01/15 04:38:26;;;;;;;16.97;8.93;;;2.80;99.90;;;;;;5018044;28;20627;-79
2022/01/15 04:40:52;;;;;;;13.70;8.60;;;2.90;99.90;;;;;;5015274;28;20209;-78
2022/01/15 04:43:18;;;;;;;15.83;8.87;;;3.00;99.90;;;;;;4998528;28;20205;-76
2022/01/15 04:45:43;;;;;;;14.73;8.33;;;2.90;99.90;;;;;;5015607;28;20182;-80
2022/01/15 04:48:15;;;;;;;13.67;8.93;;;2.90;99.90;;;;;;4998523;28;20281;-77
2022/01/15 04:50:41;;;;;;;15.17;8.80;;;2.90;99.90;;;;;;5031828;28;20252;-76
2022/01/15 04:53:09;;;;;;;14.80;8.97;;;2.90;99.90;;;;;;5032942;28;20284;-79
2022/01/15 04:55:36;;;;;;;14.23;8.40;;;3.00;99.90;;;;;;5031027;28;20691;-75
2022/01/15 04:58:02;;;;;;;13.40;8.47;;;3.00;99.90;;;;;;5014487;28;20518;-79
2022/01/15 05:00:32;;;;;;;14.87;8.63;;;3.10;99.90;;;;;;5014846;28;20170;-76
2022/01/15 05:02:58;;;;;;;19.07;8.73;;;3.00;99.90;;;;;;4999312;28;20174;-79
2022/01/15 05:05:25;;;;;;;15.90;9.17;;;2.90;99.90;;;;;;5032634;28;20176;-79
2022/01/15 05:07:54;;;;;;;12.83;8.00;;;3.00;99.90;;;;;;5030979;28;20182;-78
2022/01/15 05:10:25;;;;;;;17.50;8.50;;;2.90;99.90;;;;;;5031898;28;20166;-77
2022/01/15 05:12:55;;;;;;;15.40;8.37;;;2.70;99.90;;;;;;5031074;28;20190;-77
2022/01/15 05:15:21;;;;;;;17.37;8.20;;;2.60;99.90;;;;;;5014149;28;20209;-78
2022/01/15 05:17:48;;;;;;;15.20;9.27;;;2.70;99.90;;;;;;5014543;28;20193;-79
2022/01/15 05:20:18;;;;;;;13.30;8.40;;;2.60;99.90;;;;;;5031685;28;20177;-79
2022/01/15 05:22:45;;;;;;;11.70;8.10;;;2.50;99.90;;;;;;5031089;28;20268;-76
2022/01/15 05:25:16;;;;;;;11.93;7.80;;;2.60;99.90;;;;;;5030931;28;20818;-77
2022/01/15 05:27:43;;;;;;;12.70;7.87;;;2.70;99.90;;;;;;5031219;28;20244;-79
2022/01/15 05:30:10;;;;;;;12.73;7.90;;;2.70;99.90;;;;;;5030803;28;20236;-76
2022/01/15 05:32:36;;;;;;;15.27;8.70;;;2.60;99.90;;;;;;5029638;28;20173;-78
2022/01/15 05:35:03;;;;;;;12.40;8.30;;;2.60;99.90;;;;;;5039541;28;20264;-78
2022/01/15 05:37:29;;;;;;;12.80;7.77;;;2.70;99.90;;;;;;5041523;28;20170;-75
2022/01/15 05:39:55;;;;;;;14.47;9.20;;;2.50;99.90;;;;;;5013314;28;20998;-78
2022/01/15 05:42:20;;;;;;;14.47;8.17;;;2.60;99.90;;;;;;4997653;28;20178;-78
2022/01/15 05:44:46;;;;;;;18.67;8.53;;;2.60;99.90;;;;;;4997516;28;20249;-76
2022/01/15 05:47:12;;;;;;;16.43;8.83;;;2.70;99.90;;;;;;5030861;28;20180;-79
2022/01/15 05:49:38;;;;;;;13.77;8.40;;;2.70;99.90;;;;;;5014000;28;20261;-78
2022/01/15 05:52:04;;;;;;;12.10;8.17;;;2.60;99.90;;;;;;5030825;28;20174;-76
2022/01/15 05:54:30;;;;;;;13.97;8.40;;;2.50;99.90;;;;;;5013306;28;20267;-77
2022/01/15 05:56:56;;;;;;;13.10;8.50;;;2.50;99.90;;;;;;4997965;28;20197;-78
2022/01/15 05:59:22;;;;;;;11.60;7.70;;;2.50;99.90;;;;;;5031809;28;20177;-78
2022/01/15 06:01:48;;;;;;;15.17;8.50;;;2.60;99.90;;;;;;5029873;28;20178;-75
2022/01/15 06:04:14;;;;;;;11.97;7.90;;;2.60;99.90;;;;;;5029946;28;20178;-77
2022/01/15 06:06:40;;;;;;;18.53;9.23;;;2.60;99.90;;;;;;5030714;28;20177;-77
2022/01/15 06:09:15;;;;;;;13.33;8.90;;;2.60;99.90;;;;;;5031228;28;20180;-81
2022/01/15 06:11:42;;;;;;;16.30;9.93;;;2.70;99.90;;;;;;4997021;28;20177;-77
2022/01/15 06:14:08;;;;;;;17.67;8.83;;;2.50;99.90;;;;;;5013678;28;20252;-75
2022/01/15 06:16:34;;;;;;;15.90;9.33;;;2.50;99.90;;;;;;5013086;28;20300;-77
2022/01/15 06:19:00;;;;;;;12.50;8.53;;;2.40;99.90;;;;;;5030330;28;20248;-78
2022/01/15 06:21:26;;;;;;;13.37;8.47;;;2.40;99.90;;;;;;5013143;28;20260;-78
2022/01/15 06:23:51;;;;;;;11.60;7.97;;;2.40;99.90;;;;;;5021425;28;20257;-80
2022/01/15 06:26:17;;;;;;;14.93;8.33;;;2.40;99.90;;;;;;5049622;28;20177;-77
2022/01/15 06:28:43;;;;;;;13.53;7.73;;;2.50;99.90;;;;;;5032830;28;20177;-79
2022/01/15 06:31:09;;;;;;;15.13;8.20;;;2.50;99.90;;;;;;5033192;28;20181;-78
2022/01/15 06:33:34;;;;;;;14.17;8.60;;;2.50;99.90;;;;;;5050768;28;20181;-78
2022/01/15 06:36:00;;;;;;;11.13;7.03;;;2.50;99.90;;;;;;5049392;28;20215;-79
2022/01/15 06:38:26;;;;;;;13.17;8.40;;;2.50;99.90;;;;;;5049335;28;20252;-76
2022/01/15 06:40:52;;;;;;;10.50;7.13;;;2.50;99.90;;;;;;5033953;28;20173;-79
2022/01/15 06:43:18;;;;;;;13.30;8.13;;;2.60;99.90;;;;;;5016245;28;20173;-79
2022/01/15 06:45:43;;;;;;;14.23;8.23;;;2.50;99.90;;;;;;5036914;28;20531;-81
2022/01/15 06:48:09;;;;;;;11.83;7.53;;;2.40;99.90;;;;;;5053581;28;20188;-78
2022/01/15 06:50:37;;;;;;;14.57;7.20;;;2.50;99.90;;;;;;5053731;28;20176;-78
2022/01/15 06:53:03;;;;;;;11.63;7.70;;;2.50;99.90;;;;;;5037239;28;20173;-80
2022/01/15 06:55:29;;;;;;;13.70;7.90;;;2.50;99.90;;;;;;5053488;28;20205;-75
2022/01/15 06:57:56;;;;;;;13.90;8.23;;;2.30;99.90;;;;;;5036727;28;20177;-77
2022/01/15 07:00:24;;;;;;;13.20;8.50;;;2.30;99.90;;;;;;5037001;28;20176;-77
2022/01/15 07:02:50;;;;;;;12.50;8.30;;;2.40;99.90;;;;;;5053361;28;20180;-80
2022/01/15 07:05:16;;;;;;;14.80;8.63;;;2.30;99.90;;;;;;5020401;28;20347;-79
2022/01/15 07:07:45;;;;;;;12.57;7.63;;;2.40;99.90;;;;;;5052868;28;20185;-77
2022/01/15 07:10:13;;;;;;;13.10;8.47;;;2.50;99.90;;;;;;5052859;28;20192;-76
2022/01/15 07:12:39;;;;;;;12.07;7.97;;;2.50;99.90;;;;;;5019593;28;20652;-77
2022/01/15 07:15:05;;;;;;;13.33;8.17;;;2.50;99.90;;;;;;5019595;28;20204;-77
2022/01/15 07:17:31;;;;;;;12.63;7.97;;;2.40;99.90;;;;;;5052746;28;20173;-77
2022/01/15 07:19:57;;;;;;;13.37;8.17;;;2.40;99.90;;;;;;5036496;28;20200;-80
2022/01/15 07:22:23;;;;;;;15.23;8.20;;;2.40;99.90;;;;;;5052803;28;20696;-76
2022/01/15 07:24:49;;;;;;;11.97;8.03;;;2.40;99.90;;;;;;5019943;28;20273;-76
2022/01/15 07:27:14;;;;;;;12.83;8.43;;;2.50;99.90;;;;;;4999932;28;20190;-77
2022/01/15 07:29:40;;;;;;;11.47;7.80;;;2.50;99.90;;;;;;5016484;28;20185;-76
2022/01/15 07:32:07;;;;;;;14.80;8.37;;;2.40;99.90;;;;;;5032997;28;20247;-76
2022/01/15 07:34:33;;;;;;;13.07;7.17;;;2.40;99.90;;;;;;5027938;28;20192;-76
2022/01/15 07:36:59;;;;;;;15.27;8.40;;;2.30;99.90;;;;;;5054787;28;20261;-81
2022/01/15 07:39:26;;;;;;;12.10;8.17;;;2.30;99.90;;;;;;5038346;28;20177;-76
2022/01/15 07:41:52;;;;;;;12.77;7.80;;;2.40;99.90;;;;;;5055029;28;20177;-76
2022/01/15 07:44:18;;;;;;;15.57;8.60;;;2.40;99.90;;;;;;5072011;28;20180;-78
2022/01/15 07:46:44;;;;;;;12.10;8.07;;;2.40;99.90;;;;;;5073129;28;20255;-77
2022/01/15 07:49:11;;;;;;;13.10;8.33;;;2.40;99.90;;;;;;5055052;28;20264;-79
2022/01/15 07:51:37;;;;;;;11.03;8.03;;;2.50;99.90;;;;;;5073409;28;20203;-80
2022/01/15 07:54:03;;;;;;;14.87;7.93;;;2.50;99.90;;;;;;5055483;28;20550;-80
2022/01/15 07:56:29;;;;;;;13.97;8.77;;;2.40;99.90;;;;;;5039525;28;20212;-80
2022/01/15 07:58:55;;;;;;;12.30;8.07;;;2.40;99.90;;;;;;5032525;28;20178;-78
2022/01/15 08:01:20;;;;;;;17.33;9.20;;;2.30;99.90;;;;;;5033669;28;20192;-76
2022/01/15 08:03:48;;;;;;;11.97;8.67;;;2.30;99.90;;;;;;5048017;28;20189;-79
2022/01/15 08:06:15;;;;;;;12.20;8.10;;;2.20;99.90;;;;;;5032038;28;20236;-76
2022/01/15 08:08:40;;;;;;;15.10;8.47;;;2.20;99.90;;;;;;5015512;28;20185;-80
2022/01/15 08:11:06;;;;;;;16.00;8.90;;;2.20;99.90;;;;;;5018520;28;20247;-76
2022/01/15 08:13:32;;;;;;;16.20;9.10;;;2.00;99.90;;;;;;5031786;28;20177;-78
2022/01/15 08:16:01;;;;;;;15.97;8.93;;;1.90;99.90;;;;;;5027095;28;20280;-77
2022/01/15 08:18:27;;;;;;;16.00;9.17;;;2.00;99.90;;;;;;5035165;28;20939;-76
2022/01/15 08:20:54;;;;;;;15.07;8.97;;;2.00;99.90;;;;;;5038223;28;20547;-77
2022/01/15 08:23:20;;;;;;;14.23;8.90;;;2.00;99.90;;;;;;5040988;28;20185;-76
2022/01/15 08:25:46;;;;;;;15.80;8.60;;;2.10;99.90;;;;;;5028914;28;20541;-78
2022/01/15 08:28:11;;;;;;;13.57;8.00;;;2.10;99.90;;;;;;5035886;28;20656;-78
2022/01/15 08:30:37;;;;;;;15.53;9.50;;;2.10;99.90;;;;;;5037662;28;20190;-79
2022/01/15 08:33:03;;;;;;;14.77;9.30;;;2.20;99.90;;;;;;5038168;28;20182;-76
2022/01/15 08:35:29;;;;;;;15.17;9.33;;;2.20;99.90;;;;;;5029087;28;20202;-77
2022/01/15 08:37:55;;;;;;;16.27;8.97;;;2.20;99.90;;;;;;4999132;28;20228;-77
2022/01/15 08:40:21;;;;;;;14.93;8.90;;;2.20;99.90;;;;;;5037848;28;20181;-78
2022/01/15 08:42:49;;;;;;;12.73;9.17;;;2.30;99.90;;;;;;5030418;28;20174;-79
2022/01/15 08:45:16;;;;;;;17.73;9.83;;;2.40;99.90;;;;;;5001738;28;20188;-78
2022/01/15 08:47:42;;;;;;;16.47;9.53;;;2.30;99.90;;;;;;5039626;28;20959;-79
2022/01/15 08:50:10;;;;;;;15.50;9.53;;;2.40;99.90;;;;;;5037744;28;20202;-76
2022/01/15 08:52:37;;;;;;;13.77;9.47;;;2.40;99.90;;;;;;4999347;28;20276;-76
2022/01/15 08:55:03;;;;;;;16.73;10.53;;;2.40;99.90;;;;;;5020574;28;20197;-76
2022/01/15 08:57:29;;;;;;;16.13;9.67;;;2.20;99.90;;;;;;5036110;28;20221;-78
2022/01/15 08:59:55;;;;;;;17.83;9.47;;;2.20;99.90;;;;;;5036632;28;20204;-78
2022/01/15 09:02:21;;;;;;;19.63;9.33;;;2.30;99.90;;;;;;5033527;28;20235;-79
2022/01/15 09:04:47;;;;;;;15.40;9.73;;;2.30;99.90;;;;;;5031385;28;20289;-80
2022/01/15 09:07:13;;;;;;;17.40;9.67;;;2.50;99.90;;;;;;5036001;28;20289;-76
2022/01/15 09:09:40;;;;;;;18.93;10.23;;;2.60;99.90;;;;;;5033472;28;20463;-76
2022/01/15 09:12:06;;;;;;;12.10;9.00;;;2.70;99.90;;;;;;5032684;28;20253;-76
2022/01/15 09:14:32;;;;;;;17.50;9.17;;;2.90;99.90;;;;;;5004959;28;20181;-75
2022/01/15 09:16:58;;;;;;;15.63;9.50;;;2.90;99.90;;;;;;5012183;28;20206;-78
2022/01/15 09:19:24;;;;;;;14.43;8.90;;;3.00;99.90;;;;;;5034657;28;20656;-77
2022/01/15 09:21:49;;;;;;;17.63;8.80;;;3.00;99.90;;;;;;5037355;28;20197;-76
2022/01/15 09:24:15;;;;;;;13.73;9.10;;;3.00;99.90;;;;;;5042354;28;20181;-79
2022/01/15 09:32:04;;;;;;;13.63;8.73;;;2.80;99.90;;;;;;5044378;28;20419;-76
2022/01/15 09:34:32;;;;;;;14.17;8.47;;;2.80;99.90;;;;;;5051751;28;20176;-79
2022/01/15 09:36:58;;;;;;;15.73;10.27;;;2.80;99.90;;;;;;5016037;28;20193;-78
2022/01/15 09:39:24;;;;;;;14.00;9.37;;;2.80;99.90;;;;;;5033269;28;20268;-75
2022/01/15 09:41:53;;;;;;;17.50;9.83;;;2.80;99.90;;;;;;5048821;28;20275;-78
2022/01/15 09:44:23;;;;;;;16.77;9.77;;;2.70;99.90;;;;;;5050329;28;20636;-78
2022/01/15 09:46:50;;;;;;;13.70;9.07;;;2.80;99.90;;;;;;5021526;28;20916;-80
2022/01/15 09:49:19;;;;;;;15.90;10.10;;;2.80;99.90;;;;;;5037919;28;20193;-79
2022/01/15 09:51:46;;;;;;;17.17;11.67;;;2.80;99.90;;;;;;5006559;28;20221;-76
2022/01/15 09:54:17;;;;;;;17.60;10.83;;;2.80;99.90;;;;;;5030051;28;20230;-77
2022/01/15 09:56:44;;;;;;;16.57;10.33;;;2.80;99.90;;;;;;5047976;28;20212;-77
2022/01/15 09:59:10;;;;;;;17.57;10.00;;;2.80;99.90;;;;;;5048471;28;20179;-77
2022/01/15 10:01:36;;;;;;;18.00;11.07;;;2.80;99.90;;;;;;5029948;28;20196;-77
2022/01/15 10:04:02;;;;;;;19.30;10.30;;;2.90;99.90;;;;;;5033524;28;20195;-76
2022/01/15 10:06:28;;;;;;;14.43;10.23;;;2.90;99.90;;;;;;5049115;28;20199;-76
2022/01/15 10:09:08;;;;;;;18.37;10.27;;;3.00;99.90;;;;;;5010728;28;20194;-77
2022/01/15 10:11:52;;;;;;;15.93;10.13;;;3.00;99.90;;;;;;5034931;28;20186;-75
2022/01/15 10:14:28;;;;;;;21.30;10.80;;;3.00;99.90;;;;;;5029101;28;20661;-74
2022/01/15 10:16:55;;;;;;;17.30;11.03;;;3.00;99.90;;;;;;5034159;28;20301;-78
2022/01/15 10:19:30;;;;;;;19.97;10.93;;;3.00;99.90;;;;;;5048674;28;20173;-76
2022/01/15 10:22:19;;;;;;;16.67;10.93;;;3.10;99.90;;;;;;5048866;28;20172;-78
2022/01/15 10:25:07;;;;;;;16.27;10.07;;;3.20;99.90;;;;;;5016779;28;20178;-76
2022/01/15 10:27:41;;;;;;;17.73;10.63;;;3.20;99.90;;;;;;5013008;28;20236;-77
2022/01/15 10:30:10;;;;;;;16.87;10.43;;;3.30;99.90;;;;;;5006411;28;20184;-79
2022/01/15 10:32:39;;;;;;;14.47;8.97;;;3.40;99.90;;;;;;5013191;28;20178;-75
2022/01/15 10:35:14;;;;;;;17.23;10.97;;;3.40;99.90;;;;;;5032450;28;20173;-77
2022/01/15 10:37:54;;;;;;;15.87;10.23;;;3.30;99.90;;;;;;5039593;28;20182;-77
2022/01/15 10:40:23;;;;;;;18.87;9.77;;;3.40;99.90;;;;;;5013169;28;20178;-80
2022/01/15 10:43:00;;;;;;;17.67;10.57;;;3.50;99.90;;;;;;5028254;28;20253;-76
2022/01/15 10:45:31;;;;;;;17.00;10.23;;;3.50;99.90;;;;;;5031871;28;20181;-77
2022/01/15 10:48:01;;;;;;;15.73;10.63;;;3.50;99.90;;;;;;5033860;28;20845;-79
2022/01/15 10:50:31;;;;;;;18.80;10.97;;;3.50;99.90;;;;;;5045775;28;20217;-79
2022/01/15 10:53:03;;;;;;;14.57;10.40;;;3.50;99.90;;;;;;5049065;28;20720;-79
2022/01/15 10:55:31;;;;;;;14.77;10.43;;;3.50;99.90;;;;;;5027940;28;20221;-81
2022/01/15 10:58:01;;;;;;;17.97;10.93;;;3.60;99.90;;;;;;5040091;28;20705;-80
2022/01/15 11:00:35;;;;;;;21.63;11.97;;;3.50;99.90;;;;;;5016080;28;20182;-80
2022/01/15 11:03:06;;;;;;;16.00;10.73;;;3.70;99.90;;;;;;5044742;28;20185;-79
2022/01/15 11:05:42;;;;;;;15.67;10.17;;;3.70;99.90;;;;;;5024720;28;20182;-79
2022/01/15 11:08:17;;;;;;;17.10;10.57;;;3.80;99.90;;;;;;5045001;28;20200;-79
2022/01/15 11:10:50;;;;;;;17.13;10.67;;;3.90;99.90;;;;;;5036236;28;20182;-78
2022/01/15 11:13:28;;;;;;;19.37;11.00;;;3.90;99.90;;;;;;5026973;28;20174;-80
2022/01/15 11:15:58;;;;;;;17.57;11.17;;;4.10;99.90;;;;;;5033804;28;20224;-80
2022/01/15 11:18:28;;;;;;;15.57;10.83;;;4.20;99.90;;;;;;5037367;28;20244;-79
2022/01/15 11:20:57;;;;;;;17.20;10.97;;;4.20;99.90;;;;;;5034329;28;20177;-80
2022/01/15 11:23:25;;;;;;;20.00;10.57;;;4.30;99.90;;;;;;5026875;28;20177;-80
2022/01/15 11:25:52;;;;;;;17.73;11.57;;;4.20;99.90;;;;;;5014772;28;20189;-81
2022/01/15 11:28:24;;;;;;;18.70;11.43;;;4.30;99.90;;;;;;5025789;28;20181;-81
2022/01/15 11:30:54;;;;;;;17.33;11.50;;;4.40;99.90;;;;;;5015215;28;20592;-79
2022/01/15 11:33:23;;;;;;;16.43;11.17;;;4.40;99.90;;;;;;5012702;28;20282;-81
2022/01/15 11:35:50;;;;;;;15.80;10.47;;;4.40;99.90;;;;;;5016165;28;20751;-77
2022/01/15 11:38:47;;;;;;;14.37;10.00;;;4.50;99.90;;;;;;5032445;28;20189;-80
2022/01/15 11:41:27;;;;;;;14.87;10.03;;;4.60;99.90;;;;;;5039775;28;20182;-78
2022/01/15 11:43:58;;;;;;;17.13;10.43;;;4.60;99.90;;;;;;5024513;28;20644;-79
2022/01/15 11:46:46;;;;;;;17.17;10.10;;;4.70;99.90;;;;;;5025918;28;21206;-81
2022/01/15 11:49:45;;;;;;;13.57;10.00;;;4.80;99.90;;;;;;5036201;28;20201;-78
2022/01/15 11:52:13;;;;;;;15.37;9.37;;;5.00;99.90;;;;;;5037824;28;20182;-77
2022/01/15 11:55:04;;;;;;;13.53;9.23;;;5.10;99.90;;;;;;5042110;28;20292;-79
2022/01/15 11:57:33;;;;;;;16.13;10.03;;;5.10;99.90;;;;;;5041024;28;20181;-81
2022/01/15 12:00:00;;;;;;;14.43;9.70;;;5.00;99.90;;;;;;5029737;28;20178;-80
2022/01/15 12:02:28;;;;;;;16.83;10.13;;;5.10;99.90;;;;;;5037273;28;20549;-80
2022/01/15 12:04:54;;;;;;;16.57;10.37;;;5.20;99.90;;;;;;5032078;28;20671;-79
2022/01/15 12:07:22;;;;;;;17.33;10.73;;;5.30;99.90;;;;;;5038591;28;20184;-78
2022/01/15 12:09:51;;;;;;;18.03;10.20;;;5.10;99.90;;;;;;5038114;28;20239;-80
2022/01/15 12:12:31;;;;;;;16.03;10.50;;;5.20;99.90;;;;;;5005427;28;20198;-79
2022/01/15 12:15:03;;;;;;;16.67;10.73;;;5.20;99.90;;;;;;5043197;28;20683;-79
2022/01/15 12:17:39;;;;;;;15.47;10.40;;;5.30;99.90;;;;;;5035743;28;20178;-78
2022/01/15 12:20:17;;;;;;;15.40;10.33;;;5.30;99.90;;;;;;5013181;28;20188;-78
2022/01/15 12:22:48;;;;;;;18.07;10.23;;;5.40;99.90;;;;;;5043816;28;20169;-79
2022/01/15 12:25:16;;;;;;;18.10;10.57;;;5.50;99.90;;;;;;5008692;28;20190;-80
2022/01/15 12:27:45;;;;;;;14.90;9.57;;;5.60;99.90;;;;;;5030190;28;20177;-81
2022/01/15 12:30:16;;;;;;;17.40;11.70;;;5.70;99.90;;;;;;5004799;28;20190;-78
2022/01/15 12:32:45;;;;;;;19.93;10.93;;;5.80;99.90;;;;;;5023421;28;20268;-78
2022/01/15 12:35:33;;;;;;;15.00;10.60;;;5.90;99.90;;;;;;5031420;28;20174;-78
2022/01/15 12:38:10;;;;;;;16.40;10.47;;;6.00;99.90;;;;;;5036846;28;20194;-78
2022/01/15 12:40:41;;;;;;;29.77;19.67;;;6.10;99.90;;;;;;5032283;28;20564;-79
2022/01/15 12:43:26;;;;;;;19.33;11.60;;;6.20;99.90;;;;;;4996906;28;20264;-79
2022/01/15 12:46:08;;;;;;;17.87;11.53;;;6.20;99.90;;;;;;5035379;28;20178;-78
2022/01/15 12:48:39;;;;;;;17.03;10.80;;;6.10;99.90;;;;;;5026305;28;20267;-80
2022/01/15 12:51:27;;;;;;;18.13;11.60;;;6.10;99.90;;;;;;5031220;28;20227;-82
2022/01/15 12:53:57;;;;;;;16.90;11.50;;;6.20;99.90;;;;;;5039761;28;20231;-79
2022/01/15 12:56:23;;;;;;;14.90;10.23;;;6.20;99.90;;;;;;5017282;28;20201;-79
2022/01/15 12:58:53;;;;;;;17.57;10.97;;;6.30;99.90;;;;;;5016177;28;20178;-83
2022/01/15 13:01:22;;;;;;;19.90;11.83;;;6.30;99.90;;;;;;5022625;28;20586;-80
2022/01/15 13:03:48;;;;;;;20.03;11.30;;;6.20;99.90;;;;;;5021442;28;20774;-78
2022/01/15 13:06:14;;;;;;;20.10;12.20;;;6.20;99.90;;;;;;5033067;28;20169;-79
2022/01/15 13:08:44;;;;;;;17.10;11.50;;;6.30;99.90;;;;;;5049837;28;20599;-80
2022/01/15 13:13:41;;;;;;;17.93;11.60;;;6.30;99.90;;;;;;5030639;28;20184;-79